sensor_id;sensor_type;location;lat;lon;timestamp;temperature;humidity
50955;DHT22;36966;48.064;-0.792;2023-04-03T00:01:54;18.20;42.30
50955;DHT22;36966;48.064;-0.792;2023-04-03T00:04:13;18.20;42.20
50955;DHT22;36966;48.064;-0.792;2023-04-03T00:06:32;18.20;42.10
50955;DHT22;36966;48.064;-0.792;2023-04-03T00:08:52;18.20;42.20
50955;DHT22;36966;48.064;-0.792;2023-04-03T00:11:12;18.20;42.10
50955;DHT22;36966;48.064;-0.792;2023-04-03T00:13:32;18.20;42.20
50955;DHT22;36966;48.064;-0.792;2023-04-03T00:15:52;18.20;42.20
50955;DHT22;36966;48.064;-0.792;2023-04-03T00:18:12;18.20;42.30
50955;DHT22;36966;48.064;-0.792;2023-04-03T00:20:31;18.20;42.20
50955;DHT22;36966;48.064;-0.792;2023-04-03T00:22:50;18.20;42.10
50955;DHT22;36966;48.064;-0.792;2023-04-03T00:25:10;18.20;42.10
50955;DHT22;36966;48.064;-0.792;2023-04-03T00:27:29;18.20;42.10
50955;DHT22;36966;48.064;-0.792;2023-04-03T00:29:48;18.20;42.10
50955;DHT22;36966;48.064;-0.792;2023-04-03T00:32:08;18.20;42.10
50955;DHT22;36966;48.064;-0.792;2023-04-03T00:34:27;18.10;42.10
50955;DHT22;36966;48.064;-0.792;2023-04-03T00:36:46;18.10;42.20
50955;DHT22;36966;48.064;-0.792;2023-04-03T00:39:06;18.10;42.30
50955;DHT22;36966;48.064;-0.792;2023-04-03T00:41:25;18.10;42.00
50955;DHT22;36966;48.064;-0.792;2023-04-03T00:43:45;18.10;42.10
50955;DHT22;36966;48.064;-0.792;2023-04-03T00:46:04;18.10;42.10
50955;DHT22;36966;48.064;-0.792;2023-04-03T00:48:43;18.10;42.10
50955;DHT22;36966;48.064;-0.792;2023-04-03T00:51:05;18.10;42.10
50955;DHT22;36966;48.064;-0.792;2023-04-03T00:53:30;18.10;42.00
50955;DHT22;36966;48.064;-0.792;2023-04-03T00:55:51;18.00;42.00
50955;DHT22;36966;48.064;-0.792;2023-04-03T00:58:12;18.10;42.00
50955;DHT22;36966;48.064;-0.792;2023-04-03T01:00:32;18.00;42.10
50955;DHT22;36966;48.064;-0.792;2023-04-03T01:02:51;18.00;42.10
50955;DHT22;36966;48.064;-0.792;2023-04-03T01:05:11;18.00;41.90
50955;DHT22;36966;48.064;-0.792;2023-04-03T01:07:31;18.00;41.90
50955;DHT22;36966;48.064;-0.792;2023-04-03T01:09:57;18.00;41.90
50955;DHT22;36966;48.064;-0.792;2023-04-03T01:12:24;18.00;42.00
50955;DHT22;36966;48.064;-0.792;2023-04-03T01:14:45;18.00;42.00
50955;DHT22;36966;48.064;-0.792;2023-04-03T01:25:20;18.00;41.90
50955;DHT22;36966;48.064;-0.792;2023-04-03T01:27:39;18.00;41.90
50955;DHT22;36966;48.064;-0.792;2023-04-03T01:29:59;18.00;41.90
50955;DHT22;36966;48.064;-0.792;2023-04-03T01:32:18;17.90;42.00
50955;DHT22;36966;48.064;-0.792;2023-04-03T01:34:37;17.90;41.80
50955;DHT22;36966;48.064;-0.792;2023-04-03T01:36:56;17.90;41.90
50955;DHT22;36966;48.064;-0.792;2023-04-03T01:39:16;17.90;41.90
50955;DHT22;36966;48.064;-0.792;2023-04-03T01:41:36;17.90;42.00
50955;DHT22;36966;48.064;-0.792;2023-04-03T01:43:55;17.90;42.10
50955;DHT22;36966;48.064;-0.792;2023-04-03T01:46:15;17.90;42.00
50955;DHT22;36966;48.064;-0.792;2023-04-03T01:48:35;17.90;41.90
50955;DHT22;36966;48.064;-0.792;2023-04-03T01:50:54;17.90;41.80
50955;DHT22;36966;48.064;-0.792;2023-04-03T01:53:14;17.90;41.80
50955;DHT22;36966;48.064;-0.792;2023-04-03T01:55:33;17.90;41.90
50955;DHT22;36966;48.064;-0.792;2023-04-03T01:57:53;17.90;41.90
50955;DHT22;36966;48.064;-0.792;2023-04-03T02:00:13;17.90;41.90
50955;DHT22;36966;48.064;-0.792;2023-04-03T02:02:32;17.80;41.90
50955;DHT22;36966;48.064;-0.792;2023-04-03T02:04:51;17.80;41.90
50955;DHT22;36966;48.064;-0.792;2023-04-03T02:07:10;17.80;41.80
50955;DHT22;36966;48.064;-0.792;2023-04-03T02:09:29;17.80;41.90
50955;DHT22;36966;48.064;-0.792;2023-04-03T02:11:48;17.80;42.00
50955;DHT22;36966;48.064;-0.792;2023-04-03T02:14:07;17.80;41.90
50955;DHT22;36966;48.064;-0.792;2023-04-03T02:16:26;17.80;41.90
50955;DHT22;36966;48.064;-0.792;2023-04-03T02:18:46;17.80;41.80
50955;DHT22;36966;48.064;-0.792;2023-04-03T02:21:05;17.80;41.90
50955;DHT22;36966;48.064;-0.792;2023-04-03T02:23:24;17.80;41.90
50955;DHT22;36966;48.064;-0.792;2023-04-03T02:25:43;17.80;41.90
50955;DHT22;36966;48.064;-0.792;2023-04-03T02:28:03;17.80;41.80
50955;DHT22;36966;48.064;-0.792;2023-04-03T02:30:22;17.80;41.90
50955;DHT22;36966;48.064;-0.792;2023-04-03T02:32:42;17.70;41.90
50955;DHT22;36966;48.064;-0.792;2023-04-03T02:35:02;17.70;41.80
50955;DHT22;36966;48.064;-0.792;2023-04-03T02:37:21;17.70;41.90
50955;DHT22;36966;48.064;-0.792;2023-04-03T02:39:41;17.70;41.80
50955;DHT22;36966;48.064;-0.792;2023-04-03T02:42:00;17.70;41.90
50955;DHT22;36966;48.064;-0.792;2023-04-03T02:44:19;17.70;41.80
50955;DHT22;36966;48.064;-0.792;2023-04-03T02:46:39;17.70;41.70
50955;DHT22;36966;48.064;-0.792;2023-04-03T02:48:58;17.70;41.80
50955;DHT22;36966;48.064;-0.792;2023-04-03T02:51:18;17.70;41.90
50955;DHT22;36966;48.064;-0.792;2023-04-03T02:53:37;17.70;41.90
50955;DHT22;36966;48.064;-0.792;2023-04-03T02:55:56;17.70;41.90
50955;DHT22;36966;48.064;-0.792;2023-04-03T02:58:15;17.70;41.80
50955;DHT22;36966;48.064;-0.792;2023-04-03T03:00:35;17.70;41.80
50955;DHT22;36966;48.064;-0.792;2023-04-03T03:02:54;17.70;41.80
50955;DHT22;36966;48.064;-0.792;2023-04-03T03:05:13;17.70;41.80
50955;DHT22;36966;48.064;-0.792;2023-04-03T03:07:33;17.70;41.80
50955;DHT22;36966;48.064;-0.792;2023-04-03T03:09:53;17.70;41.70
50955;DHT22;36966;48.064;-0.792;2023-04-03T03:12:12;17.70;41.70
50955;DHT22;36966;48.064;-0.792;2023-04-03T03:14:31;17.70;41.70
50955;DHT22;36966;48.064;-0.792;2023-04-03T03:16:50;17.70;41.60
50955;DHT22;36966;48.064;-0.792;2023-04-03T03:19:10;17.70;41.70
50955;DHT22;36966;48.064;-0.792;2023-04-03T03:21:29;17.70;41.80
50955;DHT22;36966;48.064;-0.792;2023-04-03T03:23:49;17.70;41.80
50955;DHT22;36966;48.064;-0.792;2023-04-03T03:26:10;17.70;41.70
50955;DHT22;36966;48.064;-0.792;2023-04-03T03:28:29;17.70;41.70
50955;DHT22;36966;48.064;-0.792;2023-04-03T03:30:49;17.70;41.80
50955;DHT22;36966;48.064;-0.792;2023-04-03T03:33:08;17.60;41.80
50955;DHT22;36966;48.064;-0.792;2023-04-03T03:35:27;17.60;41.80
50955;DHT22;36966;48.064;-0.792;2023-04-03T03:37:47;17.70;41.90
50955;DHT22;36966;48.064;-0.792;2023-04-03T03:40:06;17.60;41.90
50955;DHT22;36966;48.064;-0.792;2023-04-03T03:42:26;17.70;41.80
50955;DHT22;36966;48.064;-0.792;2023-04-03T03:44:45;17.60;42.00
50955;DHT22;36966;48.064;-0.792;2023-04-03T03:47:04;17.60;41.80
50955;DHT22;36966;48.064;-0.792;2023-04-03T03:49:25;17.60;41.80
50955;DHT22;36966;48.064;-0.792;2023-04-03T03:51:44;17.60;41.80
50955;DHT22;36966;48.064;-0.792;2023-04-03T03:54:04;17.60;41.80
50955;DHT22;36966;48.064;-0.792;2023-04-03T03:56:24;17.50;40.50
50955;DHT22;36966;48.064;-0.792;2023-04-03T03:58:44;17.40;41.60
50955;DHT22;36966;48.064;-0.792;2023-04-03T04:01:04;17.40;41.60
50955;DHT22;36966;48.064;-0.792;2023-04-03T04:03:24;17.40;41.40
50955;DHT22;36966;48.064;-0.792;2023-04-03T04:05:43;17.50;41.50
50955;DHT22;36966;48.064;-0.792;2023-04-03T04:08:03;17.40;41.50
50955;DHT22;36966;48.064;-0.792;2023-04-03T04:10:22;17.50;41.60
50955;DHT22;36966;48.064;-0.792;2023-04-03T04:12:42;17.40;41.50
50955;DHT22;36966;48.064;-0.792;2023-04-03T04:15:02;17.50;41.50
50955;DHT22;36966;48.064;-0.792;2023-04-03T04:17:21;17.40;41.70
50955;DHT22;36966;48.064;-0.792;2023-04-03T04:19:41;17.50;41.60
50955;DHT22;36966;48.064;-0.792;2023-04-03T04:22:00;17.40;41.60
50955;DHT22;36966;48.064;-0.792;2023-04-03T04:24:19;17.40;41.70
50955;DHT22;36966;48.064;-0.792;2023-04-03T04:26:39;17.40;41.60
50955;DHT22;36966;48.064;-0.792;2023-04-03T04:28:58;17.40;41.70
50955;DHT22;36966;48.064;-0.792;2023-04-03T04:31:17;17.40;41.80
50955;DHT22;36966;48.064;-0.792;2023-04-03T04:33:36;17.50;41.80
50955;DHT22;36966;48.064;-0.792;2023-04-03T04:35:55;17.40;41.70
50955;DHT22;36966;48.064;-0.792;2023-04-03T04:38:14;17.40;41.80
50955;DHT22;36966;48.064;-0.792;2023-04-03T04:40:34;17.40;41.80
50955;DHT22;36966;48.064;-0.792;2023-04-03T04:42:53;17.40;41.80
50955;DHT22;36966;48.064;-0.792;2023-04-03T04:45:12;17.40;41.80
50955;DHT22;36966;48.064;-0.792;2023-04-03T04:47:32;17.40;41.80
50955;DHT22;36966;48.064;-0.792;2023-04-03T04:49:51;17.40;41.80
50955;DHT22;36966;48.064;-0.792;2023-04-03T04:52:10;17.40;41.70
50955;DHT22;36966;48.064;-0.792;2023-04-03T04:54:30;17.40;41.80
50955;DHT22;36966;48.064;-0.792;2023-04-03T04:56:49;17.40;41.80
50955;DHT22;36966;48.064;-0.792;2023-04-03T04:59:08;17.40;41.90
50955;DHT22;36966;48.064;-0.792;2023-04-03T05:01:27;17.40;42.20
50955;DHT22;36966;48.064;-0.792;2023-04-03T05:03:47;17.40;42.20
50955;DHT22;36966;48.064;-0.792;2023-04-03T05:06:06;17.40;42.10
50955;DHT22;36966;48.064;-0.792;2023-04-03T05:08:26;17.40;42.10
50955;DHT22;36966;48.064;-0.792;2023-04-03T05:10:46;17.40;42.10
50955;DHT22;36966;48.064;-0.792;2023-04-03T05:13:05;17.30;42.10
50955;DHT22;36966;48.064;-0.792;2023-04-03T05:15:25;17.30;42.00
50955;DHT22;36966;48.064;-0.792;2023-04-03T05:17:44;17.30;42.00
50955;DHT22;36966;48.064;-0.792;2023-04-03T05:20:04;17.30;42.00
50955;DHT22;36966;48.064;-0.792;2023-04-03T05:22:24;17.30;41.90
50955;DHT22;36966;48.064;-0.792;2023-04-03T05:24:43;17.30;42.10
50955;DHT22;36966;48.064;-0.792;2023-04-03T05:27:02;17.30;42.10
50955;DHT22;36966;48.064;-0.792;2023-04-03T05:29:22;17.30;42.20
50955;DHT22;36966;48.064;-0.792;2023-04-03T05:31:41;17.30;42.30
50955;DHT22;36966;48.064;-0.792;2023-04-03T05:34:00;17.30;42.30
50955;DHT22;36966;48.064;-0.792;2023-04-03T05:36:20;17.30;42.20
50955;DHT22;36966;48.064;-0.792;2023-04-03T05:38:40;17.30;42.10
50955;DHT22;36966;48.064;-0.792;2023-04-03T05:40:59;17.30;42.10
50955;DHT22;36966;48.064;-0.792;2023-04-03T05:43:19;17.30;42.20
50955;DHT22;36966;48.064;-0.792;2023-04-03T05:45:38;17.30;42.10
50955;DHT22;36966;48.064;-0.792;2023-04-03T05:47:58;17.30;42.20
50955;DHT22;36966;48.064;-0.792;2023-04-03T05:50:17;17.30;42.10
50955;DHT22;36966;48.064;-0.792;2023-04-03T05:52:38;17.30;42.10
50955;DHT22;36966;48.064;-0.792;2023-04-03T05:54:58;17.30;42.30
50955;DHT22;36966;48.064;-0.792;2023-04-03T05:57:18;17.30;42.30
50955;DHT22;36966;48.064;-0.792;2023-04-03T05:59:37;17.30;42.60
50955;DHT22;36966;48.064;-0.792;2023-04-03T06:01:57;17.30;42.30
50955;DHT22;36966;48.064;-0.792;2023-04-03T06:04:16;17.20;42.50
50955;DHT22;36966;48.064;-0.792;2023-04-03T06:09:10;17.20;42.40
50955;DHT22;36966;48.064;-0.792;2023-04-03T06:11:29;17.20;42.50
50955;DHT22;36966;48.064;-0.792;2023-04-03T06:13:48;17.20;42.30
50955;DHT22;36966;48.064;-0.792;2023-04-03T06:16:12;17.20;42.50
50955;DHT22;36966;48.064;-0.792;2023-04-03T06:18:33;17.20;42.50
50955;DHT22;36966;48.064;-0.792;2023-04-03T06:20:52;17.20;42.40
50955;DHT22;36966;48.064;-0.792;2023-04-03T06:23:11;17.20;42.50
50955;DHT22;36966;48.064;-0.792;2023-04-03T06:25:30;17.20;42.60
50955;DHT22;36966;48.064;-0.792;2023-04-03T06:27:50;17.20;42.50
50955;DHT22;36966;48.064;-0.792;2023-04-03T06:30:10;17.20;42.50
50955;DHT22;36966;48.064;-0.792;2023-04-03T06:32:30;17.20;42.50
50955;DHT22;36966;48.064;-0.792;2023-04-03T06:34:49;17.20;42.40
50955;DHT22;36966;48.064;-0.792;2023-04-03T06:37:17;17.20;42.50
50955;DHT22;36966;48.064;-0.792;2023-04-03T06:39:36;17.20;42.50
50955;DHT22;36966;48.064;-0.792;2023-04-03T06:41:56;17.20;42.30
50955;DHT22;36966;48.064;-0.792;2023-04-03T06:44:15;17.20;42.50
50955;DHT22;36966;48.064;-0.792;2023-04-03T06:46:34;17.20;42.50
50955;DHT22;36966;48.064;-0.792;2023-04-03T06:48:54;17.20;42.70
50955;DHT22;36966;48.064;-0.792;2023-04-03T06:51:27;17.20;42.70
50955;DHT22;36966;48.064;-0.792;2023-04-03T06:53:48;17.20;42.60
50955;DHT22;36966;48.064;-0.792;2023-04-03T06:56:08;17.20;42.80
50955;DHT22;36966;48.064;-0.792;2023-04-03T06:58:27;17.20;42.80
50955;DHT22;36966;48.064;-0.792;2023-04-03T07:00:46;17.20;42.80
50955;DHT22;36966;48.064;-0.792;2023-04-03T07:03:05;17.20;42.70
50955;DHT22;36966;48.064;-0.792;2023-04-03T07:05:25;17.20;42.60
50955;DHT22;36966;48.064;-0.792;2023-04-03T07:07:45;17.20;42.80
50955;DHT22;36966;48.064;-0.792;2023-04-03T07:10:07;17.20;42.80
50955;DHT22;36966;48.064;-0.792;2023-04-03T07:12:26;17.20;42.90
50955;DHT22;36966;48.064;-0.792;2023-04-03T07:14:45;17.20;42.90
50955;DHT22;36966;48.064;-0.792;2023-04-03T07:17:04;17.20;43.00
50955;DHT22;36966;48.064;-0.792;2023-04-03T07:19:24;17.20;43.00
50955;DHT22;36966;48.064;-0.792;2023-04-03T07:21:46;17.20;43.00
50955;DHT22;36966;48.064;-0.792;2023-04-03T07:24:06;17.20;42.80
50955;DHT22;36966;48.064;-0.792;2023-04-03T07:26:25;17.20;42.90
50955;DHT22;36966;48.064;-0.792;2023-04-03T07:28:44;17.20;42.80
50955;DHT22;36966;48.064;-0.792;2023-04-03T07:31:11;17.20;42.90
50955;DHT22;36966;48.064;-0.792;2023-04-03T07:33:32;17.20;42.90
50955;DHT22;36966;48.064;-0.792;2023-04-03T07:35:52;17.20;42.80
50955;DHT22;36966;48.064;-0.792;2023-04-03T07:38:11;17.20;43.20
50955;DHT22;36966;48.064;-0.792;2023-04-03T07:40:32;17.20;43.20
50955;DHT22;36966;48.064;-0.792;2023-04-03T07:42:51;17.20;43.10
50955;DHT22;36966;48.064;-0.792;2023-04-03T07:45:11;17.20;43.00
50955;DHT22;36966;48.064;-0.792;2023-04-03T07:47:31;17.20;43.00
50955;DHT22;36966;48.064;-0.792;2023-04-03T07:49:50;17.20;43.10
50955;DHT22;36966;48.064;-0.792;2023-04-03T07:52:09;17.20;43.10
50955;DHT22;36966;48.064;-0.792;2023-04-03T07:54:28;17.20;43.10
50955;DHT22;36966;48.064;-0.792;2023-04-03T07:56:48;17.20;43.10
50955;DHT22;36966;48.064;-0.792;2023-04-03T07:59:07;17.20;43.10
50955;DHT22;36966;48.064;-0.792;2023-04-03T08:01:26;17.20;43.10
50955;DHT22;36966;48.064;-0.792;2023-04-03T08:03:46;17.20;43.10
50955;DHT22;36966;48.064;-0.792;2023-04-03T08:06:07;17.20;43.20
50955;DHT22;36966;48.064;-0.792;2023-04-03T08:08:26;17.20;43.20
50955;DHT22;36966;48.064;-0.792;2023-04-03T08:10:53;17.10;43.10
50955;DHT22;36966;48.064;-0.792;2023-04-03T08:13:12;17.10;43.20
50955;DHT22;36966;48.064;-0.792;2023-04-03T08:15:32;17.10;43.20
50955;DHT22;36966;48.064;-0.792;2023-04-03T08:17:51;17.10;43.20
50955;DHT22;36966;48.064;-0.792;2023-04-03T08:20:11;17.20;43.30
50955;DHT22;36966;48.064;-0.792;2023-04-03T08:22:30;17.20;43.20
50955;DHT22;36966;48.064;-0.792;2023-04-03T08:24:50;17.20;43.20
50955;DHT22;36966;48.064;-0.792;2023-04-03T08:27:09;17.10;43.20
50955;DHT22;36966;48.064;-0.792;2023-04-03T08:29:29;17.20;43.20
50955;DHT22;36966;48.064;-0.792;2023-04-03T08:31:49;17.10;43.30
50955;DHT22;36966;48.064;-0.792;2023-04-03T08:34:09;17.10;43.20
50955;DHT22;36966;48.064;-0.792;2023-04-03T08:36:30;17.10;43.10
50955;DHT22;36966;48.064;-0.792;2023-04-03T08:38:50;17.10;43.20
50955;DHT22;36966;48.064;-0.792;2023-04-03T08:41:29;17.10;43.10
50955;DHT22;36966;48.064;-0.792;2023-04-03T08:49:26;17.10;43.00
50955;DHT22;36966;48.064;-0.792;2023-04-03T08:51:47;17.10;43.00
50955;DHT22;36966;48.064;-0.792;2023-04-03T08:54:21;17.10;43.00
50955;DHT22;36966;48.064;-0.792;2023-04-03T08:56:42;17.10;43.00
50955;DHT22;36966;48.064;-0.792;2023-04-03T08:59:06;17.10;42.90
50955;DHT22;36966;48.064;-0.792;2023-04-03T09:01:38;17.10;42.80
50955;DHT22;36966;48.064;-0.792;2023-04-03T09:04:01;17.00;42.70
50955;DHT22;36966;48.064;-0.792;2023-04-03T09:06:24;17.10;42.70
50955;DHT22;36966;48.064;-0.792;2023-04-03T09:18:52;17.00;42.40
50955;DHT22;36966;48.064;-0.792;2023-04-03T09:21:31;17.00;42.30
50955;DHT22;36966;48.064;-0.792;2023-04-03T09:23:56;17.00;42.30
50955;DHT22;36966;48.064;-0.792;2023-04-03T09:28:45;17.00;42.40
50955;DHT22;36966;48.064;-0.792;2023-04-03T09:31:21;17.00;42.40
50955;DHT22;36966;48.064;-0.792;2023-04-03T09:33:41;17.00;42.30
50955;DHT22;36966;48.064;-0.792;2023-04-03T09:36:00;17.00;42.30
50955;DHT22;36966;48.064;-0.792;2023-04-03T09:38:21;17.00;42.40
50955;DHT22;36966;48.064;-0.792;2023-04-03T09:40:43;17.00;42.30
50955;DHT22;36966;48.064;-0.792;2023-04-03T09:43:26;17.00;42.30
50955;DHT22;36966;48.064;-0.792;2023-04-03T09:45:47;17.00;42.20
50955;DHT22;36966;48.064;-0.792;2023-04-03T09:48:18;17.00;42.20
50955;DHT22;36966;48.064;-0.792;2023-04-03T09:51:00;17.10;42.10
50955;DHT22;36966;48.064;-0.792;2023-04-03T09:53:32;17.10;42.00
50955;DHT22;36966;48.064;-0.792;2023-04-03T09:55:51;17.00;42.00
50955;DHT22;36966;48.064;-0.792;2023-04-03T09:58:25;17.00;42.00
50955;DHT22;36966;48.064;-0.792;2023-04-03T10:00:54;17.00;41.80
50955;DHT22;36966;48.064;-0.792;2023-04-03T10:03:35;17.00;41.90
50955;DHT22;36966;48.064;-0.792;2023-04-03T10:05:54;17.00;42.00
50955;DHT22;36966;48.064;-0.792;2023-04-03T10:10:33;17.00;41.90
50955;DHT22;36966;48.064;-0.792;2023-04-03T10:15:39;17.00;42.00
50955;DHT22;36966;48.064;-0.792;2023-04-03T10:18:02;17.00;41.90
50955;DHT22;36966;48.064;-0.792;2023-04-03T10:20:44;17.00;41.90
50955;DHT22;36966;48.064;-0.792;2023-04-03T10:23:26;17.00;41.80
50955;DHT22;36966;48.064;-0.792;2023-04-03T10:29:02;17.00;41.80
50955;DHT22;36966;48.064;-0.792;2023-04-03T10:31:44;17.00;41.90
50955;DHT22;36966;48.064;-0.792;2023-04-03T10:34:06;17.00;41.80
50955;DHT22;36966;48.064;-0.792;2023-04-03T10:44:41;17.00;41.80
50955;DHT22;36966;48.064;-0.792;2023-04-03T10:52:28;17.00;41.90
50955;DHT22;36966;48.064;-0.792;2023-04-03T10:55:06;17.10;42.00
50955;DHT22;36966;48.064;-0.792;2023-04-03T10:57:28;17.00;42.10
50955;DHT22;36966;48.064;-0.792;2023-04-03T11:00:05;17.00;42.10
50955;DHT22;36966;48.064;-0.792;2023-04-03T11:02:39;17.10;42.10
50955;DHT22;36966;48.064;-0.792;2023-04-03T11:05:07;17.10;42.10
50955;DHT22;36966;48.064;-0.792;2023-04-03T11:07:52;17.10;42.30
50955;DHT22;36966;48.064;-0.792;2023-04-03T11:10:43;17.10;42.20
50955;DHT22;36966;48.064;-0.792;2023-04-03T11:13:12;17.20;42.20
50955;DHT22;36966;48.064;-0.792;2023-04-03T11:15:32;17.10;42.20
50955;DHT22;36966;48.064;-0.792;2023-04-03T11:17:58;17.20;42.20
50955;DHT22;36966;48.064;-0.792;2023-04-03T11:25:23;17.10;42.30
50955;DHT22;36966;48.064;-0.792;2023-04-03T11:27:46;17.10;42.20
50955;DHT22;36966;48.064;-0.792;2023-04-03T11:35:28;17.10;42.20
50955;DHT22;36966;48.064;-0.792;2023-04-03T11:37:53;17.20;42.30
50955;DHT22;36966;48.064;-0.792;2023-04-03T11:42:39;17.10;42.30
50955;DHT22;36966;48.064;-0.792;2023-04-03T11:47:49;17.20;42.30
50955;DHT22;36966;48.064;-0.792;2023-04-03T11:53:41;17.20;42.30
50955;DHT22;36966;48.064;-0.792;2023-04-03T12:05:45;17.20;42.10
50955;DHT22;36966;48.064;-0.792;2023-04-03T12:08:25;17.20;42.20
50955;DHT22;36966;48.064;-0.792;2023-04-03T12:13:30;17.20;42.20
50955;DHT22;36966;48.064;-0.792;2023-04-03T12:15:51;17.30;42.00
50955;DHT22;36966;48.064;-0.792;2023-04-03T12:21:03;17.30;42.00
50955;DHT22;36966;48.064;-0.792;2023-04-03T12:45:25;17.40;42.00
50955;DHT22;36966;48.064;-0.792;2023-04-03T12:47:45;17.40;42.00
50955;DHT22;36966;48.064;-0.792;2023-04-03T12:50:27;17.40;42.10
50955;DHT22;36966;48.064;-0.792;2023-04-03T12:53:13;17.40;42.10
50955;DHT22;36966;48.064;-0.792;2023-04-03T12:55:34;17.40;41.90
50955;DHT22;36966;48.064;-0.792;2023-04-03T12:57:53;17.40;42.10
50955;DHT22;36966;48.064;-0.792;2023-04-03T13:00:35;17.40;42.00
50955;DHT22;36966;48.064;-0.792;2023-04-03T13:02:54;17.50;41.90
50955;DHT22;36966;48.064;-0.792;2023-04-03T13:05:18;17.50;41.90
50955;DHT22;36966;48.064;-0.792;2023-04-03T13:07:38;17.50;41.80
50955;DHT22;36966;48.064;-0.792;2023-04-03T13:10:03;17.50;41.80
50955;DHT22;36966;48.064;-0.792;2023-04-03T13:12:24;17.60;41.70
50955;DHT22;36966;48.064;-0.792;2023-04-03T13:14:56;17.60;41.60
50955;DHT22;36966;48.064;-0.792;2023-04-03T13:17:17;17.60;41.70
50955;DHT22;36966;48.064;-0.792;2023-04-03T13:19:36;17.60;41.60
50955;DHT22;36966;48.064;-0.792;2023-04-03T13:22:07;17.70;41.60
50955;DHT22;36966;48.064;-0.792;2023-04-03T13:24:29;17.70;41.60
50955;DHT22;36966;48.064;-0.792;2023-04-03T13:26:50;17.70;41.60
50955;DHT22;36966;48.064;-0.792;2023-04-03T13:29:27;17.70;41.50
50955;DHT22;36966;48.064;-0.792;2023-04-03T13:31:47;17.70;41.20
50955;DHT22;36966;48.064;-0.792;2023-04-03T13:34:12;17.70;41.40
50955;DHT22;36966;48.064;-0.792;2023-04-03T13:36:37;17.70;41.50
50955;DHT22;36966;48.064;-0.792;2023-04-03T13:39:06;17.70;41.50
50955;DHT22;36966;48.064;-0.792;2023-04-03T13:41:33;17.70;41.60
50955;DHT22;36966;48.064;-0.792;2023-04-03T13:43:52;17.70;41.50
50955;DHT22;36966;48.064;-0.792;2023-04-03T13:48:40;17.70;41.60
50955;DHT22;36966;48.064;-0.792;2023-04-03T13:51:04;17.70;41.60
50955;DHT22;36966;48.064;-0.792;2023-04-03T13:53:25;17.70;41.60
50955;DHT22;36966;48.064;-0.792;2023-04-03T13:56:39;17.70;41.50
50955;DHT22;36966;48.064;-0.792;2023-04-03T13:58:51;17.70;41.60
50955;DHT22;36966;48.064;-0.792;2023-04-03T14:01:14;17.70;41.40
50955;DHT22;36966;48.064;-0.792;2023-04-03T14:03:57;17.70;41.50
50955;DHT22;36966;48.064;-0.792;2023-04-03T14:06:17;17.70;41.40
50955;DHT22;36966;48.064;-0.792;2023-04-03T14:08:36;17.70;41.30
50955;DHT22;36966;48.064;-0.792;2023-04-03T14:10:55;17.70;41.50
50955;DHT22;36966;48.064;-0.792;2023-04-03T14:13:15;17.70;41.50
50955;DHT22;36966;48.064;-0.792;2023-04-03T14:15:35;17.70;41.40
50955;DHT22;36966;48.064;-0.792;2023-04-03T14:17:54;17.70;41.60
50955;DHT22;36966;48.064;-0.792;2023-04-03T14:20:20;17.70;41.60
50955;DHT22;36966;48.064;-0.792;2023-04-03T14:22:40;17.70;41.60
50955;DHT22;36966;48.064;-0.792;2023-04-03T14:24:59;17.70;41.70
50955;DHT22;36966;48.064;-0.792;2023-04-03T14:27:26;17.70;41.70
50955;DHT22;36966;48.064;-0.792;2023-04-03T14:29:46;17.70;41.60
50955;DHT22;36966;48.064;-0.792;2023-04-03T14:32:06;17.70;41.60
50955;DHT22;36966;48.064;-0.792;2023-04-03T14:34:25;17.70;41.60
50955;DHT22;36966;48.064;-0.792;2023-04-03T14:36:45;17.60;41.80
50955;DHT22;36966;48.064;-0.792;2023-04-03T14:39:08;17.60;41.70
50955;DHT22;36966;48.064;-0.792;2023-04-03T14:41:30;17.60;41.70
50955;DHT22;36966;48.064;-0.792;2023-04-03T14:43:50;17.60;41.60
50955;DHT22;36966;48.064;-0.792;2023-04-03T14:46:27;17.60;41.60
50955;DHT22;36966;48.064;-0.792;2023-04-03T14:48:47;17.60;41.60
50955;DHT22;36966;48.064;-0.792;2023-04-03T14:51:10;17.60;41.70
50955;DHT22;36966;48.064;-0.792;2023-04-03T14:53:30;17.60;41.60
50955;DHT22;36966;48.064;-0.792;2023-04-03T14:55:51;17.60;41.70
50955;DHT22;36966;48.064;-0.792;2023-04-03T14:58:16;17.60;41.60
50955;DHT22;36966;48.064;-0.792;2023-04-03T15:00:35;17.60;41.70
50955;DHT22;36966;48.064;-0.792;2023-04-03T15:02:54;17.50;41.70
50955;DHT22;36966;48.064;-0.792;2023-04-03T15:05:14;17.60;41.70
50955;DHT22;36966;48.064;-0.792;2023-04-03T15:07:39;17.60;41.70
50955;DHT22;36966;48.064;-0.792;2023-04-03T15:10:14;17.60;41.70
50955;DHT22;36966;48.064;-0.792;2023-04-03T15:12:34;17.60;41.80
50955;DHT22;36966;48.064;-0.792;2023-04-03T15:14:53;17.60;41.70
50955;DHT22;36966;48.064;-0.792;2023-04-03T15:17:17;17.60;41.70
50955;DHT22;36966;48.064;-0.792;2023-04-03T15:19:38;17.60;41.70
50955;DHT22;36966;48.064;-0.792;2023-04-03T15:21:57;17.60;41.70
50955;DHT22;36966;48.064;-0.792;2023-04-03T15:24:16;17.60;41.70
50955;DHT22;36966;48.064;-0.792;2023-04-03T15:26:36;17.60;41.80
50955;DHT22;36966;48.064;-0.792;2023-04-03T15:28:55;17.60;41.80
50955;DHT22;36966;48.064;-0.792;2023-04-03T15:31:14;17.60;41.90
50955;DHT22;36966;48.064;-0.792;2023-04-03T15:33:35;17.60;41.90
50955;DHT22;36966;48.064;-0.792;2023-04-03T15:35:54;17.60;41.90
50955;DHT22;36966;48.064;-0.792;2023-04-03T15:38:14;17.60;41.90
50955;DHT22;36966;48.064;-0.792;2023-04-03T15:40:34;17.60;41.90
50955;DHT22;36966;48.064;-0.792;2023-04-03T15:42:54;17.60;42.00
50955;DHT22;36966;48.064;-0.792;2023-04-03T15:45:13;17.60;42.00
50955;DHT22;36966;48.064;-0.792;2023-04-03T15:47:32;17.50;42.00
50955;DHT22;36966;48.064;-0.792;2023-04-03T15:49:53;17.60;42.00
50955;DHT22;36966;48.064;-0.792;2023-04-03T15:52:13;17.50;42.10
50955;DHT22;36966;48.064;-0.792;2023-04-03T15:54:32;17.50;42.10
50955;DHT22;36966;48.064;-0.792;2023-04-03T15:56:52;17.50;42.10
50955;DHT22;36966;48.064;-0.792;2023-04-03T15:59:12;17.50;42.20
50955;DHT22;36966;48.064;-0.792;2023-04-03T16:01:31;17.50;42.10
50955;DHT22;36966;48.064;-0.792;2023-04-03T16:03:50;17.50;42.10
50955;DHT22;36966;48.064;-0.792;2023-04-03T16:06:13;17.40;42.10
50955;DHT22;36966;48.064;-0.792;2023-04-03T16:08:33;17.50;42.10
50955;DHT22;36966;48.064;-0.792;2023-04-03T16:10:55;17.50;42.00
50955;DHT22;36966;48.064;-0.792;2023-04-03T16:13:14;17.50;42.10
50955;DHT22;36966;48.064;-0.792;2023-04-03T16:15:34;17.50;42.10
50955;DHT22;36966;48.064;-0.792;2023-04-03T16:17:54;17.50;42.00
50955;DHT22;36966;48.064;-0.792;2023-04-03T16:20:14;17.50;41.90
50955;DHT22;36966;48.064;-0.792;2023-04-03T16:22:34;17.50;41.90
50955;DHT22;36966;48.064;-0.792;2023-04-03T16:24:53;17.50;42.00
50955;DHT22;36966;48.064;-0.792;2023-04-03T16:27:13;17.60;42.00
50955;DHT22;36966;48.064;-0.792;2023-04-03T16:29:32;17.50;41.90
50955;DHT22;36966;48.064;-0.792;2023-04-03T16:31:51;17.50;41.80